Time;durP1;ratioP1;P1;durP2;ratioP2;P2;SDS_P1;SDS_P2;PMS_P1;PMS_P2;Temp;Humidity;BMP_temperature;BMP_pressure;BME280_temperature;BME280_humidity;BME280_pressure;Samples;Min_cycle;Max_cycle;Signal;HPM_P1;HPM_P2
2023/10/02 00:03:29;;;;;;;9.23;5.20;;;19.10;71.90;;;;;;5041471;28;20201;-65
2023/10/02 00:05:56;;;;;;;8.80;5.77;;;19.10;72.20;;;;;;5053688;28;20715;-65
2023/10/02 00:08:39;;;;;;;8.77;5.27;;;19.10;72.30;;;;;;5053715;28;20205;-65
2023/10/02 00:11:36;;;;;;;10.83;6.30;;;19.10;72.30;;;;;;5053757;28;20221;-65
2023/10/02 00:14:20;;;;;;;8.10;5.03;;;19.00;73.00;;;;;;5053720;28;20644;-65
2023/10/02 00:16:59;;;;;;;9.80;6.23;;;19.00;72.60;;;;;;5043306;28;20226;-65
2023/10/02 00:19:32;;;;;;;10.77;7.00;;;19.00;72.50;;;;;;5054066;28;20206;-65
2023/10/02 00:22:05;;;;;;;10.53;5.60;;;19.00;72.50;;;;;;5049370;28;20685;-65
2023/10/02 00:24:35;;;;;;;9.27;5.40;;;19.00;72.10;;;;;;5053359;28;20247;-65
2023/10/02 00:27:03;;;;;;;11.00;5.93;;;19.00;72.30;;;;;;5053391;28;20692;-65
2023/10/02 00:29:30;;;;;;;8.40;5.77;;;19.00;72.50;;;;;;5053980;28;20685;-65
2023/10/02 00:31:58;;;;;;;7.60;5.43;;;19.00;72.70;;;;;;5052572;28;20230;-65
2023/10/02 00:34:31;;;;;;;8.40;6.23;;;19.00;73.00;;;;;;5053559;28;21116;-65
2023/10/02 00:37:05;;;;;;;8.57;6.10;;;18.90;72.10;;;;;;5051111;28;20220;-65
2023/10/02 00:39:34;;;;;;;8.80;5.97;;;18.90;72.20;;;;;;5033796;28;20227;-66
2023/10/02 00:44:52;;;;;;;8.40;5.90;;;18.90;72.60;;;;;;5033471;28;20329;-65
2023/10/02 00:47:38;;;;;;;7.67;5.47;;;18.80;72.50;;;;;;5033394;28;20211;-65
2023/10/02 00:50:10;;;;;;;8.83;5.43;;;18.80;72.50;;;;;;5043683;28;20232;-65
2023/10/02 00:52:40;;;;;;;9.67;6.07;;;18.80;72.60;;;;;;5053225;28;20293;-65
2023/10/02 00:55:11;;;;;;;8.83;6.17;;;18.80;72.40;;;;;;5052549;28;20228;-65
2023/10/02 00:57:38;;;;;;;7.27;5.67;;;18.80;72.40;;;;;;5053146;28;20612;-65
2023/10/02 01:00:07;;;;;;;9.50;5.80;;;18.80;72.40;;;;;;5048873;28;20241;-65
2023/10/02 01:02:35;;;;;;;9.53;6.07;;;18.70;72.50;;;;;;5037646;28;20217;-65
2023/10/02 01:05:04;;;;;;;7.13;5.97;;;18.70;72.50;;;;;;5051077;28;20233;-65
2023/10/02 01:07:33;;;;;;;5.97;4.90;;;18.70;72.70;;;;;;5046882;28;20272;-65
2023/10/02 01:10:08;;;;;;;7.47;5.43;;;18.70;72.70;;;;;;5036368;28;20198;-65
2023/10/02 01:12:43;;;;;;;7.10;5.40;;;18.70;72.60;;;;;;5052256;28;20197;-65
2023/10/02 01:15:12;;;;;;;8.33;5.70;;;18.60;72.60;;;;;;5052436;28;20229;-65
2023/10/02 01:17:40;;;;;;;9.37;5.50;;;18.50;72.60;;;;;;5052436;28;20194;-65
2023/10/02 01:20:20;;;;;;;8.37;5.60;;;18.50;72.70;;;;;;5052284;28;20448;-65
2023/10/02 01:22:52;;;;;;;8.83;5.53;;;18.50;72.80;;;;;;5052365;28;20503;-65
2023/10/02 01:25:23;;;;;;;7.83;4.97;;;18.50;72.60;;;;;;5052330;28;20206;-65
2023/10/02 01:27:55;;;;;;;8.33;5.37;;;18.50;72.70;;;;;;5052184;28;20629;-65
2023/10/02 01:30:24;;;;;;;7.17;5.77;;;18.40;72.70;;;;;;5032305;28;20609;-65
2023/10/02 01:35:49;;;;;;;9.37;5.70;;;18.40;72.80;;;;;;5049164;28;20194;-65
2023/10/02 01:38:18;;;;;;;7.80;5.20;;;18.40;72.80;;;;;;5052375;28;20226;-65
2023/10/02 01:40:54;;;;;;;7.33;5.73;;;18.40;72.80;;;;;;5051877;28;20457;-66
2023/10/02 01:43:24;;;;;;;9.13;5.40;;;18.40;73.10;;;;;;5051963;28;20229;-66
2023/10/02 01:45:56;;;;;;;8.93;5.70;;;18.40;73.00;;;;;;5052415;28;20221;-66
2023/10/02 01:48:37;;;;;;;7.43;5.57;;;18.30;73.00;;;;;;5051869;28;20202;-65
2023/10/02 01:51:20;;;;;;;7.17;5.30;;;18.30;73.80;;;;;;5051867;28;20205;-65
2023/10/02 01:53:48;;;;;;;8.40;5.63;;;18.30;72.80;;;;;;5052124;28;20205;-66
2023/10/02 01:56:16;;;;;;;7.33;5.10;;;18.30;73.00;;;;;;5052018;28;20464;-65
2023/10/02 01:58:44;;;;;;;7.47;5.57;;;18.30;72.90;;;;;;5051367;28;20531;-65
2023/10/02 02:01:12;;;;;;;7.53;5.13;;;18.30;72.90;;;;;;5058175;28;20209;-65
2023/10/02 02:03:40;;;;;;;7.50;5.10;;;18.30;72.90;;;;;;5057836;28;20492;-65
2023/10/02 02:06:10;;;;;;;8.43;5.30;;;18.30;72.80;;;;;;5051962;28;20472;-65
2023/10/02 02:08:38;;;;;;;9.30;5.40;;;18.30;72.70;;;;;;5051146;28;20247;-65
2023/10/02 02:11:19;;;;;;;10.67;5.20;;;18.30;73.40;;;;;;5051821;28;20236;-65
2023/10/02 02:13:49;;;;;;;9.10;5.83;;;18.20;72.60;;;;;;5031508;28;20198;-65
2023/10/02 02:16:21;;;;;;;8.80;5.83;;;18.20;72.70;;;;;;5050289;28;20222;-65
2023/10/02 02:18:53;;;;;;;6.33;4.80;;;18.20;72.70;;;;;;5049237;28;20214;-65
2023/10/02 02:21:24;;;;;;;7.33;5.07;;;18.10;72.50;;;;;;5048240;28;20528;-65
2023/10/02 02:24:03;;;;;;;6.77;4.90;;;18.10;72.50;;;;;;5051317;28;20218;-66
2023/10/02 02:26:31;;;;;;;6.77;5.00;;;18.10;72.50;;;;;;5043390;28;20562;-65
2023/10/02 02:28:59;;;;;;;6.37;4.60;;;18.10;72.50;;;;;;5040161;28;20525;-65
2023/10/02 02:31:33;;;;;;;6.00;4.90;;;18.00;72.50;;;;;;5031786;28;20240;-65
2023/10/02 02:34:02;;;;;;;8.10;4.67;;;18.00;72.70;;;;;;5051332;28;20480;-65
2023/10/02 02:36:34;;;;;;;8.17;5.10;;;18.00;72.70;;;;;;5051598;28;20213;-64
2023/10/02 02:39:17;;;;;;;7.07;5.03;;;17.90;72.90;;;;;;5039043;28;20226;-66
2023/10/02 02:41:46;;;;;;;8.20;5.00;;;17.90;73.10;;;;;;5042336;28;20194;-65
2023/10/02 02:47:07;;;;;;;6.30;4.90;;;17.80;73.40;;;;;;5051762;28;20430;-65
2023/10/02 02:49:48;;;;;;;8.70;4.33;;;17.80;73.60;;;;;;5051487;28;20472;-66
2023/10/02 02:52:15;;;;;;;7.43;4.80;;;17.80;73.60;;;;;;5031496;28;20440;-64
2023/10/02 02:54:44;;;;;;;6.53;4.90;;;17.80;73.60;;;;;;5031669;28;20230;-65
2023/10/02 02:57:12;;;;;;;7.40;4.83;;;17.80;73.50;;;;;;5030474;28;20241;-65
2023/10/02 02:59:40;;;;;;;6.57;4.70;;;17.80;73.60;;;;;;5031293;28;20257;-65
2023/10/02 03:02:09;;;;;;;7.80;4.70;;;17.80;73.60;;;;;;5047061;28;20202;-65
2023/10/02 03:04:38;;;;;;;6.93;4.63;;;17.80;73.40;;;;;;5051354;28;20538;-65
2023/10/02 03:07:09;;;;;;;6.80;4.63;;;17.80;73.40;;;;;;5051277;28;20514;-66
2023/10/02 03:09:36;;;;;;;8.13;4.90;;;17.80;73.20;;;;;;5051166;28;20505;-65
2023/10/02 03:12:05;;;;;;;7.90;4.90;;;17.80;73.10;;;;;;5050942;28;20826;-65
2023/10/02 03:14:33;;;;;;;6.40;4.80;;;17.80;73.00;;;;;;5050837;28;20210;-65
2023/10/02 03:17:22;;;;;;;8.17;4.50;;;17.80;73.00;;;;;;5047509;28;20448;-65
2023/10/02 03:19:49;;;;;;;6.60;4.87;;;17.70;73.00;;;;;;5052940;28;20460;-65
2023/10/02 03:22:20;;;;;;;8.00;5.07;;;17.70;73.00;;;;;;5040528;28;20484;-65
2023/10/02 03:24:48;;;;;;;7.77;4.87;;;17.70;73.20;;;;;;5043157;28;20483;-65
2023/10/02 03:27:15;;;;;;;7.10;4.57;;;17.60;73.40;;;;;;5043942;28;20897;-66
2023/10/02 03:29:43;;;;;;;8.57;5.40;;;17.60;73.20;;;;;;5039352;28;20449;-65
2023/10/02 03:32:23;;;;;;;7.50;5.07;;;17.60;73.10;;;;;;5043941;28;21017;-65
2023/10/02 03:35:02;;;;;;;8.57;5.97;;;17.60;73.40;;;;;;5054705;28;20450;-65
2023/10/02 03:37:29;;;;;;;7.13;5.83;;;17.50;73.50;;;;;;5052998;28;20890;-65
2023/10/02 03:40:14;;;;;;;7.10;4.97;;;17.50;73.60;;;;;;5054620;28;20464;-65
2023/10/02 03:42:41;;;;;;;9.40;5.87;;;17.50;73.60;;;;;;5054002;28;20498;-65
2023/10/02 03:45:08;;;;;;;8.37;4.70;;;17.50;73.60;;;;;;5054357;28;20478;-64
2023/10/02 03:47:37;;;;;;;7.03;5.20;;;17.50;73.60;;;;;;5054396;28;20494;-65
2023/10/02 03:50:11;;;;;;;8.10;5.30;;;17.50;73.60;;;;;;5054124;28;20456;-64
2023/10/02 03:52:41;;;;;;;7.27;4.80;;;17.50;73.60;;;;;;5053982;28;20738;-65
2023/10/02 03:55:19;;;;;;;6.90;5.20;;;17.50;73.50;;;;;;5053223;28;20988;-66
2023/10/02 03:57:49;;;;;;;7.37;4.93;;;17.50;73.20;;;;;;5054336;28;20940;-66
2023/10/02 04:00:22;;;;;;;9.03;5.97;;;17.40;73.00;;;;;;5053932;28;20979;-66
2023/10/02 04:02:52;;;;;;;8.33;6.20;;;17.50;73.20;;;;;;5053561;28;20484;-66
2023/10/02 04:05:36;;;;;;;9.43;5.77;;;17.50;73.60;;;;;;5053363;28;20559;-65
2023/10/02 04:08:21;;;;;;;8.20;5.27;;;17.40;73.60;;;;;;5054060;28;20506;-65
2023/10/02 04:11:03;;;;;;;7.97;5.20;;;17.40;73.90;;;;;;5053620;28;20484;-65
2023/10/02 04:13:33;;;;;;;7.87;5.47;;;17.40;73.90;;;;;;5051311;28;20458;-65
2023/10/02 04:18:49;;;;;;;8.07;4.67;;;17.40;73.80;;;;;;5046521;28;20659;-65
2023/10/02 04:21:22;;;;;;;9.10;5.93;;;17.30;73.60;;;;;;5052456;28;20473;-65
2023/10/02 04:23:52;;;;;;;8.50;5.67;;;17.30;73.60;;;;;;5040169;28;20483;-65
2023/10/02 04:26:19;;;;;;;11.40;6.43;;;17.30;73.70;;;;;;5042246;28;20801;-65
2023/10/02 04:28:54;;;;;;;8.20;5.80;;;17.30;73.90;;;;;;5047726;28;20452;-65
2023/10/02 04:31:22;;;;;;;8.10;5.10;;;17.30;73.80;;;;;;5043994;28;20784;-65
2023/10/02 04:34:14;;;;;;;7.77;5.30;;;17.30;74.30;;;;;;5040425;28;20449;-65
2023/10/02 04:36:41;;;;;;;9.33;5.80;;;17.30;74.10;;;;;;5053824;28;20955;-65
2023/10/02 04:39:51;;;;;;;8.30;5.30;;;17.30;74.10;;;;;;5041604;28;20449;-65
2023/10/02 04:42:15;;;;;;;9.03;5.80;;;17.30;74.00;;;;;;5033147;28;20504;-66
2023/10/02 04:44:46;;;;;;;10.10;6.13;;;17.30;74.10;;;;;;5033782;28;20599;-66
2023/10/02 04:47:17;;;;;;;10.23;5.43;;;17.20;73.90;;;;;;5033574;28;20443;-65
2023/10/02 04:50:34;;;;;;;12.63;5.63;;;17.20;73.90;;;;;;5031401;28;20530;-65
2023/10/02 04:52:55;;;;;;;11.10;6.00;;;17.30;74.10;;;;;;5032626;28;20437;-65
2023/10/02 04:55:24;;;;;;;9.70;5.90;;;17.20;74.50;;;;;;5033504;28;20329;-65
2023/10/02 04:57:54;;;;;;;9.63;5.03;;;17.20;74.00;;;;;;5033275;28;20952;-65
2023/10/02 05:00:32;;;;;;;8.13;5.47;;;17.30;74.10;;;;;;5036570;28;20468;-65
2023/10/02 05:03:09;;;;;;;8.03;5.37;;;17.20;73.90;;;;;;5052445;28;20488;-65
2023/10/02 05:05:42;;;;;;;9.73;5.70;;;17.20;74.90;;;;;;5052125;28;21010;-65
2023/10/02 05:08:18;;;;;;;9.47;5.77;;;17.20;74.30;;;;;;5052532;28;20951;-65
2023/10/02 05:10:49;;;;;;;7.27;5.40;;;17.20;74.10;;;;;;5052588;28;20475;-65
2023/10/02 05:13:45;;;;;;;7.83;5.43;;;17.10;74.10;;;;;;5053325;28;20783;-65
2023/10/02 05:16:11;;;;;;;9.27;5.20;;;17.10;74.10;;;;;;5052347;28;20855;-65
2023/10/02 05:18:47;;;;;;;8.10;5.60;;;17.10;73.90;;;;;;5052329;28;20463;-65
2023/10/02 05:21:16;;;;;;;7.77;5.13;;;17.10;73.80;;;;;;5052409;28;20516;-65
2023/10/02 05:23:56;;;;;;;9.27;5.93;;;17.10;73.70;;;;;;5050622;28;20484;-65
2023/10/02 05:26:32;;;;;;;7.10;5.37;;;17.10;73.90;;;;;;5051336;28;20495;-65
2023/10/02 05:29:00;;;;;;;8.20;5.63;;;17.10;74.10;;;;;;5057711;28;20540;-65
2023/10/02 05:31:28;;;;;;;8.53;5.60;;;17.00;73.80;;;;;;5062996;28;21045;-65
2023/10/02 05:33:57;;;;;;;7.57;5.23;;;17.00;73.70;;;;;;5052080;28;20452;-65
2023/10/02 05:36:28;;;;;;;9.50;5.93;;;17.10;74.00;;;;;;5050192;28;20453;-64
2023/10/02 05:39:28;;;;;;;8.13;5.47;;;17.00;74.10;;;;;;5051308;28;20491;-65
2023/10/02 05:42:05;;;;;;;8.57;5.83;;;17.00;74.10;;;;;;5026051;28;20506;-65
2023/10/02 05:44:33;;;;;;;8.13;4.90;;;17.00;74.20;;;;;;5050579;28;20483;-65
2023/10/02 05:47:06;;;;;;;7.03;5.10;;;17.10;74.10;;;;;;5036791;28;20461;-65
2023/10/02 05:49:33;;;;;;;6.90;5.00;;;17.00;74.00;;;;;;5049163;28;20487;-65
2023/10/02 05:52:02;;;;;;;9.50;5.30;;;17.00;74.20;;;;;;5032016;28;20961;-65
2023/10/02 05:54:35;;;;;;;7.30;5.07;;;17.00;74.20;;;;;;5049211;28;20551;-65
2023/10/02 05:57:13;;;;;;;7.77;5.07;;;17.00;74.40;;;;;;5049812;28;20546;-65
2023/10/02 05:59:45;;;;;;;6.60;4.67;;;17.00;74.40;;;;;;5037319;28;20491;-64
2023/10/02 06:02:17;;;;;;;8.60;5.17;;;17.10;74.50;;;;;;5050489;28;20448;-66
2023/10/02 06:04:47;;;;;;;8.73;5.43;;;17.10;74.50;;;;;;5045540;28;21020;-66
2023/10/02 06:07:19;;;;;;;7.10;5.37;;;17.10;74.40;;;;;;5031799;28;20442;-70
2023/10/02 06:09:47;;;;;;;8.93;5.30;;;17.10;74.40;;;;;;5032030;28;20453;-69
2023/10/02 06:12:18;;;;;;;6.83;4.67;;;17.10;74.50;;;;;;5031892;28;20532;-69
2023/10/02 06:14:45;;;;;;;7.57;5.40;;;17.10;74.50;;;;;;5032145;28;20198;-69
2023/10/02 06:17:12;;;;;;;9.37;5.53;;;17.20;74.60;;;;;;5036200;28;20666;-69
2023/10/02 06:19:48;;;;;;;5.93;4.90;;;17.20;74.90;;;;;;5051220;28;20449;-69
2023/10/02 06:22:18;;;;;;;7.93;5.63;;;17.20;75.30;;;;;;5034028;28;20476;-70
2023/10/02 06:24:45;;;;;;;10.07;6.60;;;17.20;75.50;;;;;;5032212;28;20481;-69
2023/10/02 06:27:16;;;;;;;7.33;5.17;;;17.20;75.50;;;;;;5036169;28;20508;-70
2023/10/02 06:29:47;;;;;;;7.60;4.97;;;17.20;75.40;;;;;;5051438;28;20452;-70
2023/10/02 06:32:19;;;;;;;8.40;5.80;;;17.20;76.20;;;;;;5038814;28;20514;-70
2023/10/02 06:34:47;;;;;;;8.03;5.53;;;17.20;75.40;;;;;;5051446;28;20444;-69
2023/10/02 06:37:17;;;;;;;8.10;5.63;;;17.30;75.60;;;;;;5050343;28;20462;-70
2023/10/02 06:39:46;;;;;;;7.53;5.47;;;17.40;75.60;;;;;;5051738;28;20943;-69
2023/10/02 06:42:16;;;;;;;7.90;5.93;;;17.40;75.80;;;;;;5051382;28;20510;-70
2023/10/02 06:44:53;;;;;;;8.63;5.90;;;17.40;76.00;;;;;;5049800;28;20484;-70
2023/10/02 06:47:23;;;;;;;9.17;6.07;;;17.50;76.20;;;;;;5050897;28;20208;-69
2023/10/02 06:49:52;;;;;;;9.20;6.03;;;17.60;76.30;;;;;;5051423;28;20530;-69
2023/10/02 06:52:21;;;;;;;8.63;5.93;;;17.70;76.60;;;;;;5046722;28;20216;-69
2023/10/02 06:54:56;;;;;;;7.77;5.37;;;17.70;76.90;;;;;;5016611;28;20484;-69
2023/10/02 06:57:24;;;;;;;10.03;6.43;;;17.80;76.60;;;;;;5043601;28;20532;-69
2023/10/02 06:59:54;;;;;;;12.20;6.60;;;17.90;76.60;;;;;;5054850;28;20237;-70
2023/10/02 07:02:23;;;;;;;9.10;6.67;;;18.00;76.40;;;;;;5038521;28;20203;-70
2023/10/02 07:04:50;;;;;;;11.13;7.07;;;18.10;76.00;;;;;;5035106;28;20900;-70
2023/10/02 07:07:21;;;;;;;11.60;6.77;;;18.20;76.10;;;;;;5039294;28;20212;-70
2023/10/02 07:09:49;;;;;;;9.63;6.90;;;18.30;76.20;;;;;;5045560;28;20206;-69
2023/10/02 07:12:18;;;;;;;10.27;7.00;;;18.40;76.10;;;;;;5054603;28;20317;-70
2023/10/02 07:14:45;;;;;;;11.63;7.20;;;18.50;75.90;;;;;;5061736;28;20459;-71
2023/10/02 07:17:16;;;;;;;11.93;7.43;;;18.60;75.70;;;;;;5071010;28;20234;-70
2023/10/02 07:19:49;;;;;;;13.07;7.47;;;18.70;75.60;;;;;;5071799;28;20297;-70
2023/10/02 07:22:23;;;;;;;11.70;7.23;;;18.80;75.70;;;;;;5071356;28;20451;-70
2023/10/02 07:24:54;;;;;;;12.07;7.10;;;18.90;75.60;;;;;;5070634;28;20229;-70
2023/10/02 07:27:24;;;;;;;12.37;7.03;;;19.00;75.70;;;;;;5069559;28;20269;-69
2023/10/02 07:29:52;;;;;;;12.93;8.07;;;19.00;75.20;;;;;;5070170;28;20202;-70
2023/10/02 07:32:20;;;;;;;13.93;8.27;;;19.10;76.30;;;;;;5062224;28;20234;-69
2023/10/02 07:34:48;;;;;;;15.93;7.70;;;19.20;75.30;;;;;;5054533;28;20636;-69
2023/10/02 07:37:16;;;;;;;13.23;8.10;;;19.20;75.40;;;;;;5054791;28;20224;-70
2023/10/02 07:39:43;;;;;;;14.70;8.13;;;19.30;75.20;;;;;;5054203;28;20777;-70
2023/10/02 07:42:11;;;;;;;11.60;7.63;;;19.40;74.80;;;;;;5054167;28;20297;-69
2023/10/02 07:44:39;;;;;;;13.43;8.10;;;19.50;74.50;;;;;;5054282;28;20222;-69
2023/10/02 07:47:10;;;;;;;14.80;8.53;;;19.70;74.40;;;;;;5053981;28;20226;-69
2023/10/02 07:49:38;;;;;;;12.17;7.80;;;19.70;74.30;;;;;;5054473;28;20305;-69
2023/10/02 07:52:08;;;;;;;13.67;8.40;;;19.80;73.80;;;;;;5054122;28;20238;-70
2023/10/02 07:54:44;;;;;;;13.70;8.03;;;20.00;74.10;;;;;;5054212;28;20208;-70
2023/10/02 07:57:14;;;;;;;15.27;7.90;;;20.10;73.90;;;;;;5053902;28;20215;-70
2023/10/02 07:59:43;;;;;;;13.43;8.40;;;20.20;74.00;;;;;;5054257;28;20521;-70
2023/10/02 08:02:33;;;;;;;14.53;8.37;;;20.30;73.30;;;;;;5053443;28;20207;-69
2023/10/02 08:05:03;;;;;;;15.03;8.53;;;20.40;73.00;;;;;;5053470;28;20261;-70
2023/10/02 08:07:30;;;;;;;14.27;7.60;;;20.50;73.00;;;;;;5045757;28;20202;-70
2023/10/02 08:09:59;;;;;;;13.47;7.97;;;20.60;72.80;;;;;;5033891;28;20227;-70
2023/10/02 08:12:30;;;;;;;12.30;7.67;;;20.70;72.90;;;;;;5033505;28;20257;-70
2023/10/02 08:15:05;;;;;;;13.40;7.97;;;20.90;72.70;;;;;;5033970;28;20234;-69
2023/10/02 08:20:32;;;;;;;12.80;8.27;;;21.10;72.70;;;;;;5011779;28;20280;-70
2023/10/02 08:23:02;;;;;;;13.97;8.37;;;21.20;72.30;;;;;;5053341;28;20212;-70
2023/10/02 08:25:33;;;;;;;13.87;8.40;;;21.30;72.00;;;;;;5053932;28;20269;-70
2023/10/02 08:28:01;;;;;;;15.07;8.37;;;21.40;72.20;;;;;;5053288;28;20240;-70
2023/10/02 08:30:31;;;;;;;13.80;8.47;;;21.60;72.00;;;;;;5052508;28;20296;-70
2023/10/02 08:33:05;;;;;;;14.87;9.13;;;21.70;72.20;;;;;;5053298;28;20287;-69
2023/10/02 08:35:36;;;;;;;16.07;8.80;;;21.90;72.30;;;;;;5053645;28;20185;-69
2023/10/02 08:38:07;;;;;;;13.43;8.40;;;22.00;71.90;;;;;;5053330;28;20209;-70
2023/10/02 08:40:34;;;;;;;13.17;8.43;;;22.20;71.30;;;;;;5053143;28;20301;-69
2023/10/02 08:43:05;;;;;;;12.80;8.20;;;22.40;71.70;;;;;;5053009;28;20206;-70
2023/10/02 08:45:33;;;;;;;13.50;8.20;;;22.50;71.30;;;;;;5050448;28;20238;-69
2023/10/02 08:48:07;;;;;;;12.87;8.23;;;22.70;70.80;;;;;;5053100;28;20213;-69
2023/10/02 08:50:37;;;;;;;13.70;8.43;;;22.70;70.20;;;;;;5053143;28;20329;-69
2023/10/02 08:53:09;;;;;;;13.50;7.50;;;22.90;70.20;;;;;;5053075;28;20206;-69
2023/10/02 08:55:40;;;;;;;11.53;7.57;;;23.00;70.00;;;;;;5052867;28;20673;-69
2023/10/02 08:58:17;;;;;;;11.47;8.03;;;23.10;69.60;;;;;;5053010;28;20206;-69
2023/10/02 09:01:06;;;;;;;13.40;7.97;;;23.20;68.90;;;;;;5053722;28;20897;-70
2023/10/02 09:03:41;;;;;;;12.23;8.07;;;23.30;68.50;;;;;;5052735;28;20214;-69
2023/10/02 09:11:42;;;;;;;13.13;8.13;;;23.70;67.90;;;;;;5016460;28;20204;-70
2023/10/02 09:14:16;;;;;;;13.70;7.90;;;23.70;67.60;;;;;;5049654;28;20229;-70
2023/10/02 09:16:45;;;;;;;14.03;8.57;;;23.90;68.20;;;;;;5051811;28;20209;-69
2023/10/02 09:22:01;;;;;;;13.40;8.23;;;24.20;67.60;;;;;;5052218;28;20316;-70
2023/10/02 09:24:28;;;;;;;13.90;8.83;;;24.40;67.30;;;;;;5052097;28;20221;-70
2023/10/02 09:27:20;;;;;;;13.43;8.90;;;24.60;66.20;;;;;;5052410;28;20209;-70
2023/10/02 09:29:45;;;;;;;13.73;8.77;;;24.80;66.20;;;;;;5051675;28;20216;-70
2023/10/02 09:32:21;;;;;;;12.40;7.77;;;24.90;65.50;;;;;;5052054;28;20237;-70
2023/10/02 09:37:35;;;;;;;13.37;8.40;;;25.10;63.90;;;;;;5051808;28;20221;-69
2023/10/02 09:40:13;;;;;;;14.90;8.80;;;25.20;63.60;;;;;;5051947;28;20205;-70
2023/10/02 09:42:45;;;;;;;14.47;8.20;;;25.20;62.20;;;;;;5051592;28;20213;-70
2023/10/02 09:45:30;;;;;;;14.40;8.50;;;25.20;63.00;;;;;;5052185;28;20233;-70
2023/10/02 09:47:59;;;;;;;13.10;8.17;;;25.20;63.20;;;;;;5051822;28;20304;-69
2023/10/02 09:50:29;;;;;;;13.73;7.97;;;25.30;62.70;;;;;;5051839;28;20732;-69
2023/10/02 09:52:59;;;;;;;13.47;8.47;;;25.40;62.30;;;;;;5051487;28;20684;-69
2023/10/02 09:55:42;;;;;;;12.80;7.90;;;25.60;62.60;;;;;;5051798;28;20717;-69
2023/10/02 09:58:28;;;;;;;13.20;8.20;;;25.70;61.10;;;;;;5051478;28;20267;-69
2023/10/02 10:01:37;;;;;;;12.40;9.00;;;25.80;60.80;;;;;;5052242;28;20233;-69
2023/10/02 10:07:26;;;;;;;12.37;7.90;;;26.20;60.40;;;;;;5048811;28;20219;-68
2023/10/02 10:10:27;;;;;;;15.13;9.07;;;26.30;59.60;;;;;;5031955;28;20296;-71
2023/10/02 10:12:55;;;;;;;11.80;8.13;;;26.40;60.10;;;;;;5031169;28;20287;-70
2023/10/02 10:15:27;;;;;;;13.30;8.97;;;26.50;59.90;;;;;;5031887;28;20211;-69
2023/10/02 10:17:57;;;;;;;13.30;8.33;;;26.70;60.20;;;;;;5031786;28;20213;-69
2023/10/02 10:20:26;;;;;;;16.57;8.97;;;26.90;59.10;;;;;;5034471;28;20210;-69
2023/10/02 10:22:56;;;;;;;14.17;9.63;;;26.90;58.70;;;;;;5051419;28;20214;-70
2023/10/02 10:25:42;;;;;;;13.70;9.33;;;27.00;58.40;;;;;;5051524;28;20226;-69
2023/10/02 10:28:14;;;;;;;13.27;9.10;;;27.10;57.60;;;;;;5051115;28;20207;-69
2023/10/02 10:30:44;;;;;;;12.30;8.73;;;27.20;58.50;;;;;;5051312;28;20252;-69
2023/10/02 10:33:40;;;;;;;15.03;9.43;;;27.30;57.90;;;;;;5051413;28;20652;-69
2023/10/02 10:36:41;;;;;;;14.80;9.20;;;27.40;56.60;;;;;;5051287;28;20226;-69
2023/10/02 10:40:40;;;;;;;12.73;9.27;;;27.50;57.50;;;;;;5051667;28;20210;-68
2023/10/02 10:42:59;;;;;;;16.60;10.00;;;27.70;56.90;;;;;;5051030;28;20290;-69
2023/10/02 10:45:30;;;;;;;15.87;10.23;;;27.90;56.20;;;;;;5051483;28;20224;-69
2023/10/02 10:47:55;;;;;;;14.63;9.43;;;28.20;57.10;;;;;;5051233;28;20229;-68
2023/10/02 10:50:32;;;;;;;14.17;8.87;;;28.30;56.60;;;;;;5051473;28;20223;-69
2023/10/02 10:53:26;;;;;;;13.67;9.53;;;28.50;55.10;;;;;;5051282;28;20236;-69
2023/10/02 10:55:54;;;;;;;16.37;9.80;;;28.50;55.30;;;;;;5050823;28;20780;-70
2023/10/02 10:58:33;;;;;;;14.60;10.07;;;28.70;55.90;;;;;;5051360;28;20215;-70
2023/10/02 11:01:02;;;;;;;15.60;9.50;;;29.00;54.60;;;;;;5051371;28;20214;-69
2023/10/02 11:03:30;;;;;;;15.37;10.03;;;29.00;54.20;;;;;;5050805;28;20205;-69
2023/10/02 11:06:04;;;;;;;14.27;9.57;;;29.20;54.30;;;;;;5051009;28;20260;-69
2023/10/02 11:08:37;;;;;;;15.70;9.77;;;29.40;53.70;;;;;;5034357;28;20244;-70
2023/10/02 11:11:18;;;;;;;14.50;9.83;;;29.40;53.00;;;;;;5031015;28;20654;-69
2023/10/02 11:13:53;;;;;;;16.83;9.97;;;29.60;52.70;;;;;;5030730;28;20229;-68
2023/10/02 11:16:36;;;;;;;15.77;10.03;;;29.70;52.80;;;;;;5031366;28;20613;-68
2023/10/02 11:19:23;;;;;;;21.53;11.97;;;29.80;51.80;;;;;;5031274;28;20213;-69
2023/10/02 11:22:18;;;;;;;18.43;11.77;;;30.00;51.90;;;;;;5030982;28;20241;-69
2023/10/02 11:25:05;;;;;;;18.43;11.77;;;30.20;50.40;;;;;;5030638;28;20594;-68
2023/10/02 11:27:34;;;;;;;19.10;12.80;;;30.30;51.00;;;;;;5031144;28;20453;-70
2023/10/02 11:30:09;;;;;;;18.87;12.80;;;30.40;49.50;;;;;;5031006;28;20210;-70
2023/10/02 11:32:53;;;;;;;19.60;13.17;;;30.50;49.40;;;;;;5030920;28;20233;-69
2023/10/02 11:35:20;;;;;;;20.30;13.20;;;30.60;48.50;;;;;;5030843;28;20710;-69
2023/10/02 11:37:50;;;;;;;19.00;13.10;;;30.70;49.10;;;;;;5031165;28;20211;-69
2023/10/02 11:40:17;;;;;;;19.50;12.80;;;30.80;48.10;;;;;;5031476;28;20233;-70
2023/10/02 11:42:44;;;;;;;20.03;13.23;;;30.80;48.60;;;;;;5034266;28;20222;-68
2023/10/02 11:45:11;;;;;;;21.23;13.77;;;31.00;48.90;;;;;;5034130;28;20233;-70
2023/10/02 11:47:38;;;;;;;19.13;12.70;;;31.10;48.30;;;;;;5034405;28;20697;-69
2023/10/02 11:50:06;;;;;;;19.23;12.90;;;31.20;47.30;;;;;;5034185;28;20714;-69
2023/10/02 11:52:33;;;;;;;18.90;13.27;;;31.30;47.20;;;;;;5033939;28;20322;-69
2023/10/02 11:55:01;;;;;;;19.70;13.00;;;31.40;47.90;;;;;;5033909;28;20221;-68
2023/10/02 11:57:30;;;;;;;19.50;13.60;;;31.70;47.80;;;;;;5034027;28;20209;-69
2023/10/02 11:59:57;;;;;;;20.30;13.00;;;31.60;46.50;;;;;;5033972;28;20215;-69
2023/10/02 12:02:25;;;;;;;19.83;13.30;;;31.60;46.60;;;;;;5034234;28;20636;-69
2023/10/02 12:04:52;;;;;;;19.60;12.73;;;31.70;46.30;;;;;;5033701;28;20330;-70
2023/10/02 12:07:19;;;;;;;19.90;13.43;;;31.90;46.30;;;;;;5040457;28;20561;-69
2023/10/02 12:09:47;;;;;;;23.73;14.00;;;32.00;46.00;;;;;;5053604;28;20241;-70
2023/10/02 12:12:16;;;;;;;18.87;13.43;;;32.20;46.00;;;;;;5054768;28;20212;-68
2023/10/02 12:14:43;;;;;;;21.30;13.90;;;32.30;45.70;;;;;;5053661;28;20682;-69
2023/10/02 12:17:11;;;;;;;18.73;13.87;;;32.50;44.90;;;;;;5056071;28;20628;-73
2023/10/02 12:19:40;;;;;;;20.67;14.17;;;32.60;44.80;;;;;;5066493;28;20635;-69
2023/10/02 12:22:07;;;;;;;20.63;13.33;;;32.70;44.50;;;;;;5047258;28;20229;-69
2023/10/02 12:24:35;;;;;;;23.00;14.33;;;32.90;44.70;;;;;;5045592;28;20208;-69
2023/10/02 12:27:02;;;;;;;20.57;13.73;;;33.00;43.50;;;;;;5045290;28;20243;-69
2023/10/02 12:29:30;;;;;;;18.37;13.03;;;33.20;43.70;;;;;;5044714;28;20354;-70
2023/10/02 12:32:00;;;;;;;21.37;14.40;;;33.50;43.50;;;;;;5044915;28;20269;-70
2023/10/02 12:34:27;;;;;;;19.60;12.90;;;33.60;42.70;;;;;;5041757;28;20233;-70
2023/10/02 12:36:54;;;;;;;18.73;13.00;;;33.70;43.40;;;;;;5034233;28;20308;-70
2023/10/02 12:39:22;;;;;;;21.03;13.70;;;33.80;42.70;;;;;;5033668;28;20230;-70
2023/10/02 12:41:49;;;;;;;18.23;12.77;;;33.80;42.20;;;;;;5033570;28;20210;-69
2023/10/02 12:44:16;;;;;;;21.50;13.57;;;33.90;42.20;;;;;;5033213;28;20210;-69
2023/10/02 12:46:48;;;;;;;21.33;13.73;;;34.00;42.10;;;;;;5033372;28;20232;-69
2023/10/02 12:49:17;;;;;;;19.57;13.57;;;34.10;41.20;;;;;;5033243;28;20800;-69
2023/10/02 12:51:45;;;;;;;19.93;13.87;;;34.30;42.10;;;;;;5032689;28;20256;-69
2023/10/02 12:54:11;;;;;;;19.63;13.83;;;34.50;42.00;;;;;;5032806;28;20299;-70
2023/10/02 12:56:39;;;;;;;19.63;13.83;;;34.60;41.00;;;;;;5043224;28;20212;-69
2023/10/02 12:59:11;;;;;;;20.47;13.67;;;34.80;41.30;;;;;;5053491;28;20205;-68
2023/10/02 13:01:38;;;;;;;20.33;14.73;;;35.10;40.90;;;;;;5052938;28;20260;-70
2023/10/02 13:04:07;;;;;;;19.97;14.03;;;35.30;40.30;;;;;;5053108;28;20206;-70
2023/10/02 13:06:34;;;;;;;20.20;13.70;;;35.40;38.90;;;;;;5052397;28;20223;-70
2023/10/02 13:09:08;;;;;;;20.63;14.70;;;35.50;39.10;;;;;;5043082;28;20239;-70
2023/10/02 13:11:39;;;;;;;21.10;14.40;;;35.40;38.00;;;;;;5052509;28;20205;-69
2023/10/02 13:14:06;;;;;;;21.43;14.60;;;35.40;38.70;;;;;;5052974;28;20261;-70
2023/10/02 13:16:33;;;;;;;20.90;14.77;;;35.50;38.40;;;;;;5052349;28;20192;-69
2023/10/02 13:19:00;;;;;;;20.67;14.33;;;35.60;38.60;;;;;;5052872;28;20607;-71
2023/10/02 13:21:28;;;;;;;21.47;14.30;;;35.70;37.80;;;;;;5048480;28;20569;-69
2023/10/02 13:23:55;;;;;;;20.87;14.13;;;35.90;37.70;;;;;;5052025;28;20232;-69
2023/10/02 13:26:22;;;;;;;21.17;14.37;;;36.10;38.10;;;;;;5052756;28;20225;-69
2023/10/02 13:28:52;;;;;;;20.70;13.60;;;36.40;37.20;;;;;;5042568;28;20211;-70
2023/10/02 13:31:19;;;;;;;18.17;13.20;;;36.80;36.70;;;;;;5052322;28;20237;-71
2023/10/02 13:33:51;;;;;;;20.17;14.33;;;37.20;36.50;;;;;;5042351;28;20293;-68
2023/10/02 13:36:21;;;;;;;19.77;13.77;;;37.50;35.80;;;;;;5032479;28;20631;-69
2023/10/02 13:38:53;;;;;;;18.87;14.63;;;37.80;35.00;;;;;;5032806;28;20208;-70